עמוד ראשי
METAR-TAF:

METAR-TAF

שדות תעופה :

Qurayyat, ערב הסעודית

קו רוחב: 31-24N, קו אורך: 037-16E, גובה: 509מטר

תצפית מזג אוויר נוכחית

הדו"ח נערך לפני 21דקות, בשעה 19:00 UTC
רוח 10קשר מכיוון מערב
טמפרטורת 35 צלסיוס
לחות 11%
לחץ 1010 hPa
ראות 10 קילומטר או יותר
ללא עננים שבסיסם נמוך מ 5000 רגל או קומולונימבוס

METAR: OEGT 131900Z 28010KT CAVOK 35/00 Q1010 NOSIG

זמן: 22:21 (19:21 UTC)

תחזית

הדו"ח נערך לפני 8 שעות ו 21דקות, בשעה 11:00 UTC
תחזית בתוקף מ 13 ב 12 UTC עד 14 ב 18 UTC
רוח 10קשר מכיוון צפון/צפון-מערב
ראות 10 קילומטר או יותר
ללא עננים שבסיסם נמוך מ 5000 רגל או קומולונימבוס

TAF: OEGT 131100Z 1312/1418 34010KT CAVOK

תצפיות ותחזיות מזג אוויר לגבי יותר מ- 4,000 שדות תעופה ברחבי העולם. דוחות METAR ו- TAF.

התחנות הזמינות מסומנות בנקודות צהובות ואדומות על גבי המפה.

העבר את העכבר לנקודה הצבעונית על מנת לראות את שם התחנה.

לאחר מכן, לחץ כדי לראות את תוכן ואת תחזיות מזג האוויר.

כדי לשנות את המפה: לחץ על הכפתורים הירוקים עם הפלוס השחור כדי להתקרב; על הכפתור הירוק עם המקף כדי להתרחק; או בחיצים הירוקים למפות סמוכות.


METAR-TAF: